sensor_id;sensor_type;location;lat;lon;timestamp;temperature;humidity
14154;DHT22;7157;53.144;7.570;2023-10-19T00:08:17;9.18;101.57
14154;DHT22;7157;53.144;7.570;2023-10-19T00:18:21;9.11;102.78
14154;DHT22;7157;53.144;7.570;2023-10-19T00:28:26;9.00;104.76
14154;DHT22;7157;53.144;7.570;2023-10-19T00:38:29;8.95;105.37
14154;DHT22;7157;53.144;7.570;2023-10-19T00:48:48;8.96;105.92
14154;DHT22;7157;53.144;7.570;2023-10-19T00:58:51;8.82;107.04
14154;DHT22;7157;53.144;7.570;2023-10-19T01:08:58;8.82;107.28
14154;DHT22;7157;53.144;7.570;2023-10-19T01:19:04;8.78;107.30
14154;DHT22;7157;53.144;7.570;2023-10-19T01:29:09;8.73;107.84
14154;DHT22;7157;53.144;7.570;2023-10-19T01:39:15;8.71;108.17
14154;DHT22;7157;53.144;7.570;2023-10-19T01:49:21;8.77;108.07
14154;DHT22;7157;53.144;7.570;2023-10-19T01:59:29;8.72;108.17
14154;DHT22;7157;53.144;7.570;2023-10-19T02:09:33;8.73;108.64
14154;DHT22;7157;53.144;7.570;2023-10-19T02:19:36;8.62;108.85
14154;DHT22;7157;53.144;7.570;2023-10-19T02:29:40;8.45;109.97
14154;DHT22;7157;53.144;7.570;2023-10-19T02:39:44;8.48;110.47
14154;DHT22;7157;53.144;7.570;2023-10-19T02:49:48;8.53;110.39
14154;DHT22;7157;53.144;7.570;2023-10-19T02:59:57;8.52;110.78
14154;DHT22;7157;53.144;7.570;2023-10-19T03:10:02;8.53;111.10
14154;DHT22;7157;53.144;7.570;2023-10-19T03:20:07;8.52;111.77
14154;DHT22;7157;53.144;7.570;2023-10-19T03:30:14;8.51;111.89
14154;DHT22;7157;53.144;7.570;2023-10-19T03:40:19;8.51;112.33
14154;DHT22;7157;53.144;7.570;2023-10-19T03:50:31;8.49;112.66
14154;DHT22;7157;53.144;7.570;2023-10-19T04:00:34;8.51;112.60
14154;DHT22;7157;53.144;7.570;2023-10-19T04:10:39;8.42;112.77
14154;DHT22;7157;53.144;7.570;2023-10-19T04:20:46;8.52;112.60
14154;DHT22;7157;53.144;7.570;2023-10-19T04:30:59;8.43;112.90
14154;DHT22;7157;53.144;7.570;2023-10-19T04:41:05;8.48;112.80
14154;DHT22;7157;53.144;7.570;2023-10-19T04:51:12;8.45;113.09
14154;DHT22;7157;53.144;7.570;2023-10-19T05:01:15;8.39;112.87
14154;DHT22;7157;53.144;7.570;2023-10-19T05:11:19;8.43;112.94
14154;DHT22;7157;53.144;7.570;2023-10-19T05:21:22;8.35;113.35
14154;DHT22;7157;53.144;7.570;2023-10-19T05:31:26;8.29;113.59
14154;DHT22;7157;53.144;7.570;2023-10-19T05:41:29;8.41;113.40
14154;DHT22;7157;53.144;7.570;2023-10-19T05:51:34;8.38;113.11
14154;DHT22;7157;53.144;7.570;2023-10-19T06:01:38;8.30;113.38
14154;DHT22;7157;53.144;7.570;2023-10-19T06:11:42;8.36;113.06
14154;DHT22;7157;53.144;7.570;2023-10-19T06:21:45;8.39;113.16
14154;DHT22;7157;53.144;7.570;2023-10-19T06:31:49;8.37;113.20
14154;DHT22;7157;53.144;7.570;2023-10-19T06:41:52;8.41;113.16
14154;DHT22;7157;53.144;7.570;2023-10-19T06:51:56;8.42;113.11
14154;DHT22;7157;53.144;7.570;2023-10-19T07:01:58;8.44;113.08
14154;DHT22;7157;53.144;7.570;2023-10-19T07:12:04;8.45;113.29
14154;DHT22;7157;53.144;7.570;2023-10-19T07:22:09;8.45;113.23
14154;DHT22;7157;53.144;7.570;2023-10-19T07:32:13;8.55;113.20
14154;DHT22;7157;53.144;7.570;2023-10-19T07:42:18;8.56;113.32
14154;DHT22;7157;53.144;7.570;2023-10-19T07:52:24;8.57;113.33
14154;DHT22;7157;53.144;7.570;2023-10-19T08:02:27;8.55;113.23
14154;DHT22;7157;53.144;7.570;2023-10-19T08:12:31;8.57;113.29
14154;DHT22;7157;53.144;7.570;2023-10-19T08:22:36;8.62;113.26
14154;DHT22;7157;53.144;7.570;2023-10-19T08:32:41;8.80;112.97
14154;DHT22;7157;53.144;7.570;2023-10-19T08:42:45;8.83;113.00
14154;DHT22;7157;53.144;7.570;2023-10-19T08:52:52;8.92;113.05
14154;DHT22;7157;53.144;7.570;2023-10-19T09:02:55;9.08;112.95
14154;DHT22;7157;53.144;7.570;2023-10-19T09:13:01;9.08;112.76
14154;DHT22;7157;53.144;7.570;2023-10-19T09:23:04;9.09;112.89
14154;DHT22;7157;53.144;7.570;2023-10-19T09:33:10;9.11;112.83
14154;DHT22;7157;53.144;7.570;2023-10-19T09:43:17;9.21;112.71
14154;DHT22;7157;53.144;7.570;2023-10-19T09:53:25;9.29;112.68
14154;DHT22;7157;53.144;7.570;2023-10-19T10:03:45;9.27;112.72
14154;DHT22;7157;53.144;7.570;2023-10-19T10:13:50;9.50;112.53
14154;DHT22;7157;53.144;7.570;2023-10-19T10:23:55;9.61;112.09
14154;DHT22;7157;53.144;7.570;2023-10-19T10:34:00;9.81;112.00
14154;DHT22;7157;53.144;7.570;2023-10-19T10:44:04;9.68;111.97
14154;DHT22;7157;53.144;7.570;2023-10-19T10:54:08;9.75;111.98
14154;DHT22;7157;53.144;7.570;2023-10-19T11:04:11;9.83;111.84
14154;DHT22;7157;53.144;7.570;2023-10-19T11:14:17;9.86;111.60
14154;DHT22;7157;53.144;7.570;2023-10-19T11:24:27;9.96;111.55
14154;DHT22;7157;53.144;7.570;2023-10-19T11:34:36;9.94;111.77
14154;DHT22;7157;53.144;7.570;2023-10-19T11:44:40;9.79;111.92
14154;DHT22;7157;53.144;7.570;2023-10-19T11:54:44;9.68;111.79
14154;DHT22;7157;53.144;7.570;2023-10-19T12:04:47;9.86;111.52
14154;DHT22;7157;53.144;7.570;2023-10-19T12:14:51;9.83;111.77
14154;DHT22;7157;53.144;7.570;2023-10-19T12:24:55;9.90;111.61
14154;DHT22;7157;53.144;7.570;2023-10-19T12:35:01;9.90;111.76
14154;DHT22;7157;53.144;7.570;2023-10-19T12:45:05;9.80;112.05
14154;DHT22;7157;53.144;7.570;2023-10-19T12:55:13;9.85;111.51
14154;DHT22;7157;53.144;7.570;2023-10-19T13:05:16;9.86;111.86
14154;DHT22;7157;53.144;7.570;2023-10-19T13:15:23;9.86;112.04
14154;DHT22;7157;53.144;7.570;2023-10-19T13:25:30;9.99;111.88
14154;DHT22;7157;53.144;7.570;2023-10-19T13:35:45;10.00;111.13
14154;DHT22;7157;53.144;7.570;2023-10-19T13:45:49;10.10;111.70
14154;DHT22;7157;53.144;7.570;2023-10-19T13:55:55;10.06;111.32
14154;DHT22;7157;53.144;7.570;2023-10-19T14:05:58;9.95;111.39
14154;DHT22;7157;53.144;7.570;2023-10-19T14:16:06;9.98;111.43
14154;DHT22;7157;53.144;7.570;2023-10-19T14:26:10;9.95;111.64
14154;DHT22;7157;53.144;7.570;2023-10-19T14:36:15;10.11;111.66
14154;DHT22;7157;53.144;7.570;2023-10-19T14:46:19;10.08;111.53
14154;DHT22;7157;53.144;7.570;2023-10-19T14:56:23;10.03;111.27
14154;DHT22;7157;53.144;7.570;2023-10-19T15:06:26;10.06;111.27
14154;DHT22;7157;53.144;7.570;2023-10-19T15:16:30;10.00;111.24
14154;DHT22;7157;53.144;7.570;2023-10-19T15:26:33;9.86;111.42
14154;DHT22;7157;53.144;7.570;2023-10-19T15:36:37;9.84;111.20
14154;DHT22;7157;53.144;7.570;2023-10-19T15:46:40;9.72;111.10
14154;DHT22;7157;53.144;7.570;2023-10-19T15:56:47;9.71;111.32
14154;DHT22;7157;53.144;7.570;2023-10-19T16:06:50;9.57;111.56
14154;DHT22;7157;53.144;7.570;2023-10-19T16:16:54;9.48;111.78
14154;DHT22;7157;53.144;7.570;2023-10-19T16:26:57;9.45;111.69
14154;DHT22;7157;53.144;7.570;2023-10-19T16:37:01;9.45;111.87
14154;DHT22;7157;53.144;7.570;2023-10-19T16:47:05;9.41;111.91
14154;DHT22;7157;53.144;7.570;2023-10-19T16:57:09;9.42;111.26
14154;DHT22;7157;53.144;7.570;2023-10-19T17:07:13;9.44;111.76
14154;DHT22;7157;53.144;7.570;2023-10-19T17:17:17;9.38;112.17
14154;DHT22;7157;53.144;7.570;2023-10-19T17:27:22;9.34;111.55
14154;DHT22;7157;53.144;7.570;2023-10-19T17:37:27;9.29;111.68
14154;DHT22;7157;53.144;7.570;2023-10-19T17:47:32;9.33;111.73
14154;DHT22;7157;53.144;7.570;2023-10-19T17:57:37;9.24;111.50
14154;DHT22;7157;53.144;7.570;2023-10-19T18:07:39;9.30;111.72
14154;DHT22;7157;53.144;7.570;2023-10-19T18:17:44;9.19;111.58
14154;DHT22;7157;53.144;7.570;2023-10-19T18:27:47;9.17;111.83
14154;DHT22;7157;53.144;7.570;2023-10-19T18:37:51;9.16;111.93
14154;DHT22;7157;53.144;7.570;2023-10-19T18:47:53;9.21;111.49
14154;DHT22;7157;53.144;7.570;2023-10-19T18:57:58;9.09;111.65
14154;DHT22;7157;53.144;7.570;2023-10-19T19:08:03;9.10;111.33
14154;DHT22;7157;53.144;7.570;2023-10-19T19:18:07;9.05;111.99
14154;DHT22;7157;53.144;7.570;2023-10-19T19:28:11;8.97;111.37
14154;DHT22;7157;53.144;7.570;2023-10-19T19:38:15;9.01;112.06
14154;DHT22;7157;53.144;7.570;2023-10-19T19:48:19;9.05;111.67
14154;DHT22;7157;53.144;7.570;2023-10-19T19:58:26;8.96;111.92
14154;DHT22;7157;53.144;7.570;2023-10-19T20:08:28;8.92;111.76
14154;DHT22;7157;53.144;7.570;2023-10-19T20:18:33;8.87;111.90
14154;DHT22;7157;53.144;7.570;2023-10-19T20:28:37;8.90;111.83
14154;DHT22;7157;53.144;7.570;2023-10-19T20:38:42;8.83;111.52
14154;DHT22;7157;53.144;7.570;2023-10-19T20:48:45;8.77;111.78
14154;DHT22;7157;53.144;7.570;2023-10-19T20:58:49;8.78;111.67
14154;DHT22;7157;53.144;7.570;2023-10-19T21:08:52;8.77;111.79
14154;DHT22;7157;53.144;7.570;2023-10-19T21:18:56;8.77;111.52
14154;DHT22;7157;53.144;7.570;2023-10-19T21:28:59;8.74;111.31
14154;DHT22;7157;53.144;7.570;2023-10-19T21:39:04;8.74;111.81
14154;DHT22;7157;53.144;7.570;2023-10-19T21:49:08;8.82;111.49
14154;DHT22;7157;53.144;7.570;2023-10-19T21:59:13;8.83;111.55
14154;DHT22;7157;53.144;7.570;2023-10-19T22:09:16;8.73;111.62
14154;DHT22;7157;53.144;7.570;2023-10-19T22:19:20;8.70;111.55
14154;DHT22;7157;53.144;7.570;2023-10-19T22:29:23;8.63;111.94
14154;DHT22;7157;53.144;7.570;2023-10-19T22:39:27;8.57;112.35
14154;DHT22;7157;53.144;7.570;2023-10-19T22:49:30;8.57;112.34
14154;DHT22;7157;53.144;7.570;2023-10-19T22:59:34;8.64;112.39
14154;DHT22;7157;53.144;7.570;2023-10-19T23:09:38;8.73;112.33
14154;DHT22;7157;53.144;7.570;2023-10-19T23:19:43;8.77;112.00
14154;DHT22;7157;53.144;7.570;2023-10-19T23:29:46;8.85;111.96
14154;DHT22;7157;53.144;7.570;2023-10-19T23:39:52;8.90;111.68
14154;DHT22;7157;53.144;7.570;2023-10-19T23:49:55;8.75;111.91
14154;DHT22;7157;53.144;7.570;2023-10-19T23:59:59;8.88;111.81
